createdAt,value
2017-07-28T00:00:11.120Z,15.63
2017-07-28T00:00:24.066Z,15.59
2017-07-28T00:00:37.557Z,15.55
2017-07-28T00:00:50.994Z,15.56
2017-07-28T00:01:03.874Z,15.65
2017-07-28T00:01:16.769Z,15.56
2017-07-28T00:01:30.193Z,15.6
2017-07-28T00:01:43.711Z,15.55
2017-07-28T00:01:57.251Z,15.58
2017-07-28T00:02:09.676Z,15.58
2017-07-28T00:02:23.129Z,15.56
2017-07-28T00:02:36.564Z,15.62
2017-07-28T00:02:50.000Z,15.56
2017-07-28T00:03:03.468Z,15.55
2017-07-28T00:03:15.849Z,15.58
2017-07-28T00:03:28.809Z,15.52
2017-07-28T00:03:41.170Z,15.6
2017-07-28T00:03:54.638Z,15.59
2017-07-28T00:04:08.131Z,15.59
2017-07-28T00:04:21.597Z,15.53
2017-07-28T00:04:35.048Z,15.53
2017-07-28T00:04:47.988Z,15.52
2017-07-28T00:05:00.905Z,15.59
2017-07-28T00:05:13.845Z,15.6
2017-07-28T00:05:27.635Z,15.52
2017-07-28T00:05:40.592Z,15.6
2017-07-28T00:05:54.022Z,15.63
2017-07-28T00:06:06.953Z,15.59
2017-07-28T00:06:20.395Z,15.59
2017-07-28T00:06:33.871Z,15.6
2017-07-28T00:06:47.357Z,15.55
2017-07-28T00:07:00.838Z,15.58
2017-07-28T00:07:13.174Z,15.49
2017-07-28T00:07:26.624Z,15.62
2017-07-28T00:07:40.049Z,15.56
2017-07-28T00:07:53.491Z,15.6
2017-07-28T00:08:06.399Z,15.58
2017-07-28T00:08:19.350Z,15.59
2017-07-28T00:08:32.858Z,15.6
2017-07-28T00:08:46.553Z,15.6
2017-07-28T00:08:59.488Z,15.62
2017-07-28T00:09:12.386Z,15.59
2017-07-28T00:09:25.836Z,15.63
2017-07-28T00:09:38.793Z,15.62
2017-07-28T00:09:51.777Z,15.62
2017-07-28T00:10:04.725Z,15.55
2017-07-28T00:10:18.234Z,15.59
2017-07-28T00:10:31.867Z,15.56
2017-07-28T00:10:45.378Z,15.63
2017-07-28T00:10:58.830Z,15.58
2017-07-28T00:11:12.270Z,15.59
2017-07-28T00:11:25.747Z,15.62
2017-07-28T00:11:38.696Z,15.53
2017-07-28T00:11:52.068Z,15.58
2017-07-28T00:12:05.494Z,15.59
2017-07-28T00:12:18.891Z,15.56
2017-07-28T00:12:32.344Z,15.55
2017-07-28T00:12:45.805Z,15.49
2017-07-28T00:12:59.244Z,15.63
2017-07-28T00:13:12.178Z,15.56
2017-07-28T00:13:25.169Z,15.55
2017-07-28T00:13:37.575Z,15.59
2017-07-28T00:13:50.481Z,15.56
2017-07-28T00:14:03.446Z,15.56
2017-07-28T00:14:16.910Z,15.56
2017-07-28T00:14:30.385Z,15.55
2017-07-28T00:14:43.790Z,15.58
2017-07-28T00:14:57.243Z,15.53
2017-07-28T00:15:10.147Z,15.56
2017-07-28T00:15:22.574Z,15.56
2017-07-28T00:15:35.745Z,15.49
2017-07-28T00:15:49.154Z,15.52
2017-07-28T00:16:02.609Z,15.52
2017-07-28T00:16:16.063Z,15.58
2017-07-28T00:16:29.548Z,15.52
2017-07-28T00:16:42.946Z,15.56
2017-07-28T00:16:55.926Z,15.55
2017-07-28T00:17:09.386Z,15.58
2017-07-28T00:17:22.319Z,15.59
2017-07-28T00:17:35.232Z,15.58
2017-07-28T00:17:48.645Z,15.52
2017-07-28T00:18:02.071Z,15.52
2017-07-28T00:18:15.017Z,15.6
2017-07-28T00:18:28.441Z,15.58
2017-07-28T00:18:41.954Z,15.56
2017-07-28T00:18:55.390Z,15.58
2017-07-28T00:19:08.893Z,15.6
2017-07-28T00:19:22.390Z,15.62
2017-07-28T00:19:35.846Z,15.63
2017-07-28T00:19:49.226Z,15.56
2017-07-28T00:20:02.166Z,15.62
2017-07-28T00:20:15.089Z,15.62
2017-07-28T00:20:27.566Z,15.58
2017-07-28T00:20:41.139Z,15.6
2017-07-28T00:20:54.612Z,15.63
2017-07-28T00:21:07.028Z,15.6
2017-07-28T00:21:20.501Z,15.62
2017-07-28T00:21:33.456Z,15.6
2017-07-28T00:21:46.886Z,15.56
2017-07-28T00:21:59.821Z,15.59
2017-07-28T00:22:12.774Z,15.59
2017-07-28T00:22:26.175Z,15.65
2017-07-28T00:22:39.141Z,15.59
2017-07-28T00:22:52.617Z,15.62
2017-07-28T00:23:06.090Z,15.63
2017-07-28T00:23:19.014Z,15.62
2017-07-28T00:23:32.548Z,15.55
2017-07-28T00:23:45.960Z,15.56
2017-07-28T00:23:59.400Z,15.59
2017-07-28T00:24:12.846Z,15.63
2017-07-28T00:24:25.751Z,15.59
2017-07-28T00:24:39.175Z,15.63
2017-07-28T00:24:52.586Z,15.67
2017-07-28T00:25:05.539Z,15.62
2017-07-28T00:25:18.985Z,15.62
2017-07-28T00:25:32.381Z,15.56
2017-07-28T00:25:45.870Z,15.59
2017-07-28T00:25:59.364Z,15.62
2017-07-28T00:26:12.254Z,15.65
2017-07-28T00:26:25.667Z,15.67
2017-07-28T00:26:39.105Z,15.62
2017-07-28T00:26:52.603Z,15.67
2017-07-28T00:27:06.081Z,15.56
2017-07-28T00:27:19.589Z,15.65
2017-07-28T00:27:31.978Z,15.59
2017-07-28T00:27:45.411Z,15.59
2017-07-28T00:27:58.817Z,15.6
2017-07-28T00:28:11.228Z,15.62
2017-07-28T00:28:24.733Z,15.56
2017-07-28T00:28:38.160Z,15.52
2017-07-28T00:28:51.583Z,15.58
2017-07-28T00:29:05.000Z,15.6
2017-07-28T00:29:17.945Z,15.62
2017-07-28T00:29:31.413Z,15.65
2017-07-28T00:29:44.834Z,15.62
2017-07-28T00:29:58.207Z,15.55
2017-07-28T00:30:11.714Z,15.63
2017-07-28T00:30:25.192Z,15.51
2017-07-28T00:30:38.109Z,15.58
2017-07-28T00:30:51.563Z,15.59
2017-07-28T00:31:05.029Z,15.62
2017-07-28T00:31:18.566Z,15.59
2017-07-28T00:31:31.481Z,15.55
2017-07-28T00:31:44.890Z,15.52
2017-07-28T00:31:58.362Z,15.58
2017-07-28T00:32:11.233Z,15.53
2017-07-28T00:32:24.676Z,15.56
2017-07-28T00:32:38.066Z,15.59
2017-07-28T00:32:50.947Z,15.56
2017-07-28T00:33:03.895Z,15.53
2017-07-28T00:33:16.920Z,15.53
2017-07-28T00:33:29.894Z,15.49
2017-07-28T00:33:42.273Z,15.6
2017-07-28T00:33:55.756Z,15.51
2017-07-28T00:34:09.197Z,15.51
2017-07-28T00:34:22.636Z,15.49
2017-07-28T00:34:35.545Z,15.51
2017-07-28T00:34:49.074Z,15.47
2017-07-28T00:35:01.981Z,15.53
2017-07-28T00:35:14.954Z,15.49
2017-07-28T00:35:28.345Z,15.45
2017-07-28T00:35:42.162Z,15.49
2017-07-28T00:35:54.538Z,15.47
2017-07-28T00:36:07.999Z,15.44
2017-07-28T00:36:20.363Z,15.52
2017-07-28T00:36:33.726Z,15.45
2017-07-28T00:36:46.624Z,15.45
2017-07-28T00:37:00.062Z,15.55
2017-07-28T00:37:13.459Z,15.45
2017-07-28T00:37:25.322Z,15.53
2017-07-28T00:37:38.734Z,15.43
2017-07-28T00:37:52.195Z,15.49
2017-07-28T00:38:05.705Z,15.43
2017-07-28T00:38:18.637Z,15.49
2017-07-28T00:38:31.596Z,15.51
2017-07-28T00:38:44.549Z,15.49
2017-07-28T00:38:57.991Z,15.49
2017-07-28T00:39:11.391Z,15.45
2017-07-28T00:39:24.818Z,15.45
2017-07-28T00:39:38.245Z,15.51
2017-07-28T00:39:51.684Z,15.53
2017-07-28T00:40:04.067Z,15.55
2017-07-28T00:40:17.529Z,15.44
2017-07-28T00:40:31.023Z,15.51
2017-07-28T00:40:44.233Z,15.43
2017-07-28T00:40:56.591Z,15.55
2017-07-28T00:41:09.523Z,15.47
2017-07-28T00:41:23.025Z,15.45
2017-07-28T00:41:35.930Z,15.51
2017-07-28T00:41:49.348Z,15.51
2017-07-28T00:42:02.731Z,15.51
2017-07-28T00:42:15.118Z,15.52
2017-07-28T00:42:28.562Z,15.49
2017-07-28T00:42:40.936Z,15.45
2017-07-28T00:42:53.855Z,15.45
2017-07-28T00:43:07.346Z,15.43
2017-07-28T00:43:20.815Z,15.45
2017-07-28T00:43:33.827Z,15.45
2017-07-28T00:43:47.283Z,15.43
2017-07-28T00:44:00.779Z,15.45
2017-07-28T00:44:13.180Z,15.4
2017-07-28T00:44:26.074Z,15.43
2017-07-28T00:44:39.050Z,15.47
2017-07-28T00:44:52.486Z,15.4
2017-07-28T00:45:05.961Z,15.44
2017-07-28T00:45:18.856Z,15.47
2017-07-28T00:45:32.385Z,15.47
2017-07-28T00:45:45.850Z,15.43
2017-07-28T00:45:59.404Z,15.4
2017-07-28T00:46:12.395Z,15.43
2017-07-28T00:46:25.909Z,15.44
2017-07-28T00:46:39.359Z,15.43
2017-07-28T00:46:52.353Z,15.44
2017-07-28T00:47:05.845Z,15.43
2017-07-28T00:47:19.290Z,15.44
2017-07-28T00:47:31.708Z,15.4
2017-07-28T00:47:45.146Z,15.44
2017-07-28T00:47:58.052Z,15.52
2017-07-28T00:48:11.510Z,15.47
2017-07-28T00:48:24.446Z,15.44
2017-07-28T00:48:37.891Z,15.45
2017-07-28T00:48:51.253Z,15.37
2017-07-28T00:49:04.673Z,15.44
2017-07-28T00:49:17.653Z,15.4
2017-07-28T00:49:31.209Z,15.33
2017-07-28T00:49:44.172Z,15.31
2017-07-28T00:49:57.116Z,15.3
2017-07-28T00:50:10.068Z,15.31
2017-07-28T00:50:23.498Z,15.3
2017-07-28T00:50:36.463Z,15.4
2017-07-28T00:50:50.027Z,15.33
2017-07-28T00:51:03.496Z,15.34
2017-07-28T00:51:16.401Z,15.34
2017-07-28T00:51:29.862Z,15.38
2017-07-28T00:51:42.781Z,15.33
2017-07-28T00:51:56.177Z,15.37
2017-07-28T00:52:09.663Z,15.33
2017-07-28T00:52:22.071Z,15.37
2017-07-28T00:52:35.509Z,15.33
2017-07-28T00:52:48.994Z,15.34
2017-07-28T00:53:01.993Z,15.33
2017-07-28T00:53:15.456Z,15.34
2017-07-28T00:53:28.460Z,15.35
2017-07-28T00:53:41.915Z,15.2
2017-07-28T00:53:55.333Z,15.27
2017-07-28T00:54:08.801Z,15.27
2017-07-28T00:54:22.242Z,15.33
2017-07-28T00:54:35.145Z,15.31
2017-07-28T00:54:48.602Z,15.33
2017-07-28T00:55:02.023Z,15.34
2017-07-28T00:55:15.508Z,15.33
2017-07-28T00:55:28.366Z,15.31
2017-07-28T00:55:41.453Z,15.25
2017-07-28T00:55:54.906Z,15.33
2017-07-28T00:56:07.284Z,15.25
2017-07-28T00:56:20.222Z,15.3
2017-07-28T00:56:33.182Z,15.33
2017-07-28T00:56:46.116Z,15.31
2017-07-28T00:56:59.640Z,15.33
2017-07-28T00:57:12.022Z,15.27
2017-07-28T00:57:24.942Z,15.27
2017-07-28T00:57:38.410Z,15.31
2017-07-28T00:57:50.855Z,15.27
2017-07-28T00:58:04.345Z,15.27
2017-07-28T00:58:17.842Z,15.3
2017-07-28T00:58:30.747Z,15.26
2017-07-28T00:58:43.670Z,15.37
2017-07-28T00:58:56.589Z,15.35
2017-07-28T00:59:10.028Z,15.26
2017-07-28T00:59:23.470Z,15.23
2017-07-28T00:59:36.421Z,15.23
2017-07-28T00:59:49.316Z,15.26
2017-07-28T01:00:02.731Z,15.31
2017-07-28T01:00:15.667Z,15.25
2017-07-28T01:00:29.196Z,15.26
2017-07-28T01:00:41.609Z,15.25
2017-07-28T01:00:55.063Z,15.3
2017-07-28T01:01:08.474Z,15.31
2017-07-28T01:01:21.933Z,15.19
2017-07-28T01:01:35.419Z,15.31
2017-07-28T01:01:48.404Z,15.19
2017-07-28T01:02:01.885Z,15.27
2017-07-28T01:02:15.328Z,15.33
2017-07-28T01:02:28.823Z,15.25
2017-07-28T01:02:42.302Z,15.2
2017-07-28T01:02:55.204Z,15.25
2017-07-28T01:03:08.235Z,15.31
2017-07-28T01:03:21.746Z,15.25
2017-07-28T01:03:35.202Z,15.22
2017-07-28T01:03:48.628Z,15.23
2017-07-28T01:04:01.053Z,15.26
2017-07-28T01:04:13.975Z,15.33
2017-07-28T01:04:27.364Z,15.25
2017-07-28T01:04:40.840Z,15.26
2017-07-28T01:04:54.366Z,15.23
2017-07-28T01:05:07.292Z,15.2
2017-07-28T01:05:20.177Z,15.33
2017-07-28T01:05:33.122Z,15.26
2017-07-28T01:05:47.326Z,15.23
2017-07-28T01:06:00.770Z,15.26
2017-07-28T01:06:14.200Z,15.31
2017-07-28T01:06:27.673Z,15.27
2017-07-28T01:06:40.572Z,15.18
2017-07-28T01:06:54.129Z,15.31
2017-07-28T01:07:07.569Z,15.27
2017-07-28T01:07:21.046Z,15.26
2017-07-28T01:07:34.545Z,15.26
2017-07-28T01:07:47.980Z,15.33
2017-07-28T01:08:00.383Z,15.27
2017-07-28T01:08:13.310Z,15.26
2017-07-28T01:08:26.769Z,15.19
2017-07-28T01:08:39.711Z,15.22
2017-07-28T01:08:53.130Z,15.19
2017-07-28T01:09:06.584Z,15.22
2017-07-28T01:09:19.577Z,15.16
2017-07-28T01:09:32.975Z,15.13
2017-07-28T01:09:46.437Z,15.16
2017-07-28T01:09:59.921Z,15.19
2017-07-28T01:10:12.891Z,15.18
2017-07-28T01:10:26.362Z,15.18
2017-07-28T01:10:39.318Z,15.16
2017-07-28T01:10:52.504Z,15.18
2017-07-28T01:11:06.007Z,15.19
2017-07-28T01:11:17.836Z,15.18
2017-07-28T01:11:31.279Z,15.16
2017-07-28T01:11:44.206Z,15.16
2017-07-28T01:11:57.637Z,15.08
2017-07-28T01:12:11.076Z,15.2
2017-07-28T01:12:24.503Z,15.18
2017-07-28T01:12:37.430Z,15.1
2017-07-28T01:12:50.883Z,15.13
2017-07-28T01:13:04.319Z,15.13
2017-07-28T01:13:17.777Z,15.13
2017-07-28T01:13:30.711Z,15.08
2017-07-28T01:13:44.231Z,15.04
2017-07-28T01:13:57.677Z,15.1
2017-07-28T01:14:11.082Z,15.05
2017-07-28T01:14:24.614Z,15.08
2017-07-28T01:14:37.537Z,15.05
2017-07-28T01:14:51.194Z,15.08
2017-07-28T01:15:04.676Z,15.12
2017-07-28T01:15:18.110Z,15.15
2017-07-28T01:15:31.595Z,15.1
2017-07-28T01:15:45.010Z,15.12
2017-07-28T01:15:58.471Z,15.08
2017-07-28T01:16:10.293Z,15.07
2017-07-28T01:16:23.780Z,14.97
2017-07-28T01:16:36.694Z,15.05
2017-07-28T01:16:49.627Z,15.13
2017-07-28T01:17:02.564Z,15.12
2017-07-28T01:17:15.471Z,15.1
2017-07-28T01:17:28.932Z,15.08
2017-07-28T01:17:41.838Z,15.12
2017-07-28T01:17:55.409Z,15.07
2017-07-28T01:18:07.348Z,15.08
2017-07-28T01:18:21.043Z,15.04
2017-07-28T01:18:33.477Z,15.15
2017-07-28T01:18:46.412Z,15.07
2017-07-28T01:18:59.888Z,15.15
2017-07-28T01:19:13.386Z,15.07
2017-07-28T01:19:26.838Z,15.04
2017-07-28T01:19:39.810Z,15.15
2017-07-28T01:19:53.324Z,15.08
2017-07-28T01:20:06.849Z,15.05
2017-07-28T01:20:20.256Z,15.04
2017-07-28T01:20:32.718Z,15.15
2017-07-28T01:20:47.618Z,15.08
2017-07-28T01:21:00.788Z,15.04
2017-07-28T01:21:14.256Z,15.05
2017-07-28T01:21:27.180Z,15.12
2017-07-28T01:21:40.639Z,15.12
2017-07-28T01:21:53.518Z,15.05
2017-07-28T01:22:06.478Z,15.04
2017-07-28T01:22:19.385Z,15.05
2017-07-28T01:22:32.378Z,15.12
2017-07-28T01:22:45.829Z,15.07
2017-07-28T01:22:59.269Z,15.05
2017-07-28T01:23:12.198Z,15.08
2017-07-28T01:23:25.723Z,15.05
2017-07-28T01:23:38.638Z,15
2017-07-28T01:23:52.157Z,15.04
2017-07-28T01:24:05.612Z,15.15
2017-07-28T01:24:18.589Z,15.07
2017-07-28T01:24:32.096Z,15.07
2017-07-28T01:24:45.543Z,15.07
2017-07-28T01:24:58.457Z,14.98
2017-07-28T01:25:11.356Z,15.04
2017-07-28T01:25:24.277Z,15.1
2017-07-28T01:25:37.270Z,15.01
2017-07-28T01:25:50.804Z,15.01
2017-07-28T01:26:04.209Z,15.04
2017-07-28T01:26:17.680Z,15
2017-07-28T01:26:30.619Z,15.01
2017-07-28T01:26:43.522Z,15
2017-07-28T01:26:56.923Z,15
2017-07-28T01:27:10.407Z,15.04
2017-07-28T01:27:23.373Z,15.01
2017-07-28T01:27:36.777Z,15
2017-07-28T01:27:50.288Z,15
2017-07-28T01:28:03.734Z,15.05
2017-07-28T01:28:17.157Z,15.01
2017-07-28T01:28:29.560Z,14.94
2017-07-28T01:28:42.989Z,14.98
2017-07-28T01:28:56.443Z,14.94
2017-07-28T01:29:09.926Z,14.89
2017-07-28T01:29:23.347Z,14.94
2017-07-28T01:29:36.811Z,14.98
2017-07-28T01:29:49.215Z,14.95
2017-07-28T01:30:02.652Z,14.93
2017-07-28T01:30:15.607Z,15.02
2017-07-28T01:30:29.092Z,15
2017-07-28T01:30:41.970Z,14.97
2017-07-28T01:30:54.885Z,14.94
2017-07-28T01:31:08.355Z,14.98
2017-07-28T01:31:21.803Z,14.94
2017-07-28T01:31:35.250Z,14.85
2017-07-28T01:31:48.749Z,14.98
2017-07-28T01:32:02.229Z,14.9
2017-07-28T01:32:15.181Z,14.95
2017-07-28T01:32:28.044Z,14.94
2017-07-28T01:32:41.444Z,14.94
2017-07-28T01:32:54.854Z,14.98
2017-07-28T01:33:08.288Z,14.93
2017-07-28T01:33:21.763Z,14.98
2017-07-28T01:33:35.234Z,14.98
2017-07-28T01:33:48.731Z,14.9
2017-07-28T01:34:02.223Z,14.97
2017-07-28T01:34:15.169Z,14.94
2017-07-28T01:34:28.582Z,14.93
2017-07-28T01:34:42.001Z,14.93
2017-07-28T01:34:55.451Z,14.95
2017-07-28T01:35:07.912Z,14.9
2017-07-28T01:35:21.325Z,14.98
2017-07-28T01:35:34.761Z,14.95
2017-07-28T01:35:48.194Z,14.98
2017-07-28T01:36:02.407Z,14.95
2017-07-28T01:36:15.393Z,14.93
2017-07-28T01:36:28.843Z,14.93
2017-07-28T01:36:42.214Z,14.98
2017-07-28T01:36:55.678Z,14.94
2017-07-28T01:37:09.111Z,14.94
2017-07-28T01:37:22.066Z,14.89
2017-07-28T01:37:35.481Z,14.95
2017-07-28T01:37:48.902Z,14.9
2017-07-28T01:38:02.425Z,14.94
2017-07-28T01:38:15.296Z,14.89
2017-07-28T01:38:28.741Z,14.93
2017-07-28T01:38:42.186Z,14.98
2017-07-28T01:38:55.115Z,14.93
2017-07-28T01:39:08.519Z,14.93
2017-07-28T01:39:21.961Z,14.83
2017-07-28T01:39:35.463Z,14.95
2017-07-28T01:39:48.933Z,14.93
2017-07-28T01:40:01.856Z,14.98
2017-07-28T01:40:15.338Z,14.94
2017-07-28T01:40:28.222Z,14.94
2017-07-28T01:40:41.722Z,14.93
2017-07-28T01:40:55.206Z,14.82
2017-07-28T01:41:08.366Z,14.9
2017-07-28T01:41:21.836Z,14.9
2017-07-28T01:41:35.262Z,14.93
2017-07-28T01:41:48.691Z,14.89
2017-07-28T01:42:01.057Z,14.89
2017-07-28T01:42:14.506Z,14.85
2017-07-28T01:42:27.917Z,14.87
2017-07-28T01:42:40.868Z,14.86
2017-07-28T01:42:54.346Z,14.93
2017-07-28T01:43:07.751Z,14.93
2017-07-28T01:43:21.217Z,14.79
2017-07-28T01:43:34.160Z,14.87
2017-07-28T01:43:47.640Z,14.77
2017-07-28T01:44:01.087Z,14.94
2017-07-28T01:44:14.583Z,14.94
2017-07-28T01:44:27.981Z,14.83
2017-07-28T01:44:41.362Z,14.8
2017-07-28T01:44:54.279Z,14.8
2017-07-28T01:45:07.226Z,14.8
2017-07-28T01:45:20.152Z,14.93
2017-07-28T01:45:33.648Z,14.85
2017-07-28T01:45:47.162Z,14.85
2017-07-28T01:45:59.561Z,14.82
2017-07-28T01:46:12.943Z,14.85
2017-07-28T01:46:25.792Z,14.8
2017-07-28T01:46:39.296Z,14.77
2017-07-28T01:46:52.792Z,14.77
2017-07-28T01:47:05.709Z,14.77
2017-07-28T01:47:19.106Z,14.82
2017-07-28T01:47:32.031Z,14.82
2017-07-28T01:47:45.472Z,14.86
2017-07-28T01:47:58.457Z,14.82
2017-07-28T01:48:11.405Z,14.79
2017-07-28T01:48:24.867Z,14.8
2017-07-28T01:48:37.844Z,14.75
2017-07-28T01:48:50.780Z,14.83
2017-07-28T01:49:03.714Z,14.83
2017-07-28T01:49:16.627Z,14.8
2017-07-28T01:49:30.061Z,14.83
2017-07-28T01:49:42.460Z,14.79
2017-07-28T01:49:55.948Z,14.82
2017-07-28T01:50:09.449Z,14.85
2017-07-28T01:50:22.884Z,14.82
2017-07-28T01:50:36.386Z,14.79
2017-07-28T01:50:49.811Z,14.8
2017-07-28T01:51:03.300Z,14.83
2017-07-28T01:51:16.198Z,14.83
2017-07-28T01:51:29.090Z,14.83
2017-07-28T01:51:42.565Z,14.77
2017-07-28T01:51:55.964Z,14.82
2017-07-28T01:52:08.908Z,14.82
2017-07-28T01:52:22.326Z,14.79
2017-07-28T01:52:35.260Z,14.79
2017-07-28T01:52:48.158Z,14.8
2017-07-28T01:53:01.614Z,14.82
2017-07-28T01:53:15.092Z,14.83
2017-07-28T01:53:28.594Z,14.75
2017-07-28T01:53:41.497Z,14.82
2017-07-28T01:53:54.970Z,14.83
2017-07-28T01:54:08.470Z,14.83
2017-07-28T01:54:21.913Z,14.82
2017-07-28T01:54:34.840Z,14.82
2017-07-28T01:54:48.297Z,14.8
2017-07-28T01:55:01.778Z,14.77
2017-07-28T01:55:14.643Z,14.8
2017-07-28T01:55:28.057Z,14.79
2017-07-28T01:55:41.483Z,14.82
2017-07-28T01:55:54.405Z,14.66
2017-07-28T01:56:07.360Z,14.8
2017-07-28T01:56:20.485Z,14.8
2017-07-28T01:56:32.904Z,14.82
2017-07-28T01:56:46.406Z,14.77
2017-07-28T01:56:59.865Z,14.86
2017-07-28T01:57:12.771Z,14.83
2017-07-28T01:57:26.229Z,14.86
2017-07-28T01:57:39.702Z,14.77
2017-07-28T01:57:53.189Z,14.79
2017-07-28T01:58:06.698Z,14.67
2017-07-28T01:58:19.586Z,14.71
2017-07-28T01:58:32.986Z,14.71
2017-07-28T01:58:46.453Z,14.71
2017-07-28T01:58:59.929Z,14.74
2017-07-28T01:59:13.318Z,14.71
2017-07-28T01:59:26.754Z,14.74
2017-07-28T01:59:40.234Z,14.75
2017-07-28T01:59:53.750Z,14.74
2017-07-28T02:00:07.223Z,14.75
2017-07-28T02:00:20.125Z,14.69
2017-07-28T02:00:33.662Z,14.71
2017-07-28T02:00:47.121Z,14.66
2017-07-28T02:01:00.059Z,14.69
2017-07-28T02:01:12.954Z,14.67
2017-07-28T02:01:25.856Z,14.67
2017-07-28T02:01:39.322Z,14.71
2017-07-28T02:01:52.790Z,14.66
2017-07-28T02:02:05.711Z,14.77
2017-07-28T02:02:19.163Z,14.7
2017-07-28T02:02:32.172Z,14.69
2017-07-28T02:02:45.096Z,14.8
2017-07-28T02:02:58.553Z,14.7
2017-07-28T02:03:11.472Z,14.71
2017-07-28T02:03:24.903Z,14.69
2017-07-28T02:03:38.391Z,14.69
2017-07-28T02:03:51.861Z,14.79
2017-07-28T02:04:05.327Z,14.7
2017-07-28T02:04:18.738Z,14.67
2017-07-28T02:04:31.683Z,14.7
2017-07-28T02:04:44.596Z,14.69
2017-07-28T02:04:58.016Z,14.66
2017-07-28T02:05:11.431Z,14.75
2017-07-28T02:05:24.888Z,14.69
2017-07-28T02:05:37.781Z,14.7
2017-07-28T02:05:50.744Z,14.7
2017-07-28T02:06:04.202Z,14.71
2017-07-28T02:06:17.088Z,14.71
2017-07-28T02:06:30.563Z,14.77
2017-07-28T02:06:43.524Z,14.74
2017-07-28T02:06:56.940Z,14.77
2017-07-28T02:07:10.444Z,14.66
2017-07-28T02:07:23.909Z,14.74
2017-07-28T02:07:37.327Z,14.69
2017-07-28T02:07:50.802Z,14.71
2017-07-28T02:08:04.263Z,14.74
2017-07-28T02:08:17.710Z,14.69
2017-07-28T02:08:31.170Z,14.71
2017-07-28T02:08:44.606Z,14.71
2017-07-28T02:08:58.020Z,14.69
2017-07-28T02:09:11.472Z,14.69
2017-07-28T02:09:24.347Z,14.75
2017-07-28T02:09:37.795Z,14.74
2017-07-28T02:09:51.283Z,14.75
2017-07-28T02:10:04.745Z,14.67
2017-07-28T02:10:18.210Z,14.69
2017-07-28T02:10:31.674Z,14.7
2017-07-28T02:10:45.120Z,14.75
2017-07-28T02:10:58.540Z,14.7
2017-07-28T02:11:11.463Z,14.69
2017-07-28T02:11:25.153Z,14.69
2017-07-28T02:11:38.712Z,14.69
2017-07-28T02:11:52.199Z,14.69
2017-07-28T02:12:05.617Z,14.67
2017-07-28T02:12:19.075Z,14.66
2017-07-28T02:12:31.989Z,14.67
2017-07-28T02:12:45.456Z,14.75
2017-07-28T02:12:58.390Z,14.69
2017-07-28T02:13:11.842Z,14.71
2017-07-28T02:13:24.784Z,14.77
2017-07-28T02:13:38.204Z,14.69
2017-07-28T02:13:51.667Z,14.75
2017-07-28T02:14:04.639Z,14.75
2017-07-28T02:14:18.202Z,14.75
2017-07-28T02:14:31.602Z,14.75
2017-07-28T02:14:44.526Z,14.7
2017-07-28T02:14:57.454Z,14.77
2017-07-28T02:15:10.917Z,14.74
2017-07-28T02:15:24.356Z,14.67
2017-07-28T02:15:37.371Z,14.74
2017-07-28T02:15:50.276Z,14.7
2017-07-28T02:16:03.230Z,14.74
2017-07-28T02:16:16.666Z,14.67
2017-07-28T02:16:30.084Z,14.74
2017-07-28T02:16:41.954Z,14.79
2017-07-28T02:16:55.410Z,14.82
2017-07-28T02:17:08.839Z,14.74
2017-07-28T02:17:22.262Z,14.79
2017-07-28T02:17:35.761Z,14.67
2017-07-28T02:17:49.112Z,14.79
2017-07-28T02:18:02.540Z,14.71
2017-07-28T02:18:15.497Z,14.74
2017-07-28T02:18:28.977Z,14.7
2017-07-28T02:18:42.429Z,14.77
2017-07-28T02:18:55.368Z,14.64
2017-07-28T02:19:08.768Z,14.75
2017-07-28T02:19:22.222Z,14.71
2017-07-28T02:19:35.707Z,14.67
2017-07-28T02:19:49.177Z,14.67
2017-07-28T02:20:02.609Z,14.74
2017-07-28T02:20:16.047Z,14.66
2017-07-28T02:20:29.524Z,14.71
2017-07-28T02:20:42.506Z,14.69
2017-07-28T02:20:55.514Z,14.74
2017-07-28T02:21:08.960Z,14.75
2017-07-28T02:21:23.195Z,14.71
2017-07-28T02:21:36.730Z,14.8
2017-07-28T02:21:49.605Z,14.71
2017-07-28T02:22:03.051Z,14.71
2017-07-28T02:22:15.998Z,14.77
2017-07-28T02:22:28.911Z,14.69
2017-07-28T02:22:42.347Z,14.7
2017-07-28T02:22:55.384Z,14.7
2017-07-28T02:23:08.895Z,14.61
2017-07-28T02:23:22.376Z,14.7
2017-07-28T02:23:35.365Z,14.77
2017-07-28T02:23:48.309Z,14.71
2017-07-28T02:24:01.777Z,14.67
2017-07-28T02:24:14.222Z,14.69
2017-07-28T02:24:27.139Z,14.71
2017-07-28T02:24:40.029Z,14.63
2017-07-28T02:24:52.944Z,14.66
2017-07-28T02:25:05.898Z,14.64
2017-07-28T02:25:19.407Z,14.61
2017-07-28T02:25:32.371Z,14.63
2017-07-28T02:25:45.866Z,14.67
2017-07-28T02:25:59.302Z,14.67
2017-07-28T02:26:12.191Z,14.61
2017-07-28T02:26:25.640Z,14.61
2017-07-28T02:26:39.133Z,14.64
2017-07-28T02:26:52.651Z,14.63
2017-07-28T02:27:06.067Z,14.66
2017-07-28T02:27:18.936Z,14.67
2017-07-28T02:27:31.780Z,14.64
2017-07-28T02:27:44.735Z,14.63
2017-07-28T02:27:57.617Z,14.63
2017-07-28T02:28:10.493Z,14.67
2017-07-28T02:28:22.926Z,14.69
2017-07-28T02:28:36.317Z,14.61
2017-07-28T02:28:49.710Z,14.64
2017-07-28T02:29:02.097Z,14.64
2017-07-28T02:29:15.517Z,14.63
2017-07-28T02:29:28.950Z,14.63
2017-07-28T02:29:42.455Z,14.63
2017-07-28T02:29:55.962Z,14.66
2017-07-28T02:30:08.880Z,14.67
2017-07-28T02:30:22.367Z,14.69
2017-07-28T02:30:35.298Z,14.63
2017-07-28T02:30:48.661Z,14.64
2017-07-28T02:31:02.123Z,14.7
2017-07-28T02:31:15.586Z,14.64
2017-07-28T02:31:29.043Z,14.67
2017-07-28T02:31:42.432Z,14.67
2017-07-28T02:31:55.888Z,14.67
2017-07-28T02:32:08.789Z,14.71
2017-07-28T02:32:22.253Z,14.79
2017-07-28T02:32:35.131Z,14.64
2017-07-28T02:32:48.582Z,14.59
2017-07-28T02:33:01.048Z,14.64
2017-07-28T02:33:14.580Z,14.6
2017-07-28T02:33:27.002Z,14.67
2017-07-28T02:33:40.486Z,14.64
2017-07-28T02:33:54.033Z,14.63
2017-07-28T02:34:06.975Z,14.64
2017-07-28T02:34:19.349Z,14.66
2017-07-28T02:34:32.220Z,14.64
2017-07-28T02:34:45.694Z,14.71
2017-07-28T02:34:59.141Z,14.69
2017-07-28T02:35:12.088Z,14.59
2017-07-28T02:35:24.991Z,14.63
2017-07-28T02:35:37.904Z,14.66
2017-07-28T02:35:51.383Z,14.6
2017-07-28T02:36:04.850Z,14.67
2017-07-28T02:36:17.829Z,14.64
2017-07-28T02:36:32.287Z,14.59
2017-07-28T02:36:45.746Z,14.57
2017-07-28T02:36:58.680Z,14.74
2017-07-28T02:37:11.598Z,14.61
2017-07-28T02:37:23.979Z,14.63
2017-07-28T02:37:36.365Z,14.63
2017-07-28T02:37:49.859Z,14.59
2017-07-28T02:38:02.229Z,14.53
2017-07-28T02:38:15.150Z,14.61
2017-07-28T02:38:28.552Z,14.61
2017-07-28T02:38:41.525Z,14.6
2017-07-28T02:38:54.956Z,14.63
2017-07-28T02:39:07.877Z,14.57
2017-07-28T02:39:21.298Z,14.6
2017-07-28T02:39:34.217Z,14.53
2017-07-28T02:39:47.729Z,14.64
2017-07-28T02:40:01.182Z,14.61
2017-07-28T02:40:13.628Z,14.6
2017-07-28T02:40:27.146Z,14.53
2017-07-28T02:40:39.592Z,14.59
2017-07-28T02:40:52.998Z,14.61
2017-07-28T02:41:06.447Z,14.57
2017-07-28T02:41:19.954Z,14.49
2017-07-28T02:41:33.120Z,14.6
2017-07-28T02:41:46.569Z,14.57
2017-07-28T02:42:00.045Z,14.53
2017-07-28T02:42:12.937Z,14.63
2017-07-28T02:42:26.362Z,14.53
2017-07-28T02:42:39.294Z,14.61
2017-07-28T02:42:52.737Z,14.63
2017-07-28T02:43:05.700Z,14.6
2017-07-28T02:43:19.129Z,14.61
2017-07-28T02:43:32.047Z,14.57
2017-07-28T02:43:45.482Z,14.57
2017-07-28T02:43:58.922Z,14.53
2017-07-28T02:44:11.842Z,14.61
2017-07-28T02:44:25.328Z,14.48
2017-07-28T02:44:38.791Z,14.48
2017-07-28T02:44:52.236Z,14.6
2017-07-28T02:45:05.736Z,14.53
2017-07-28T02:45:18.658Z,14.56
2017-07-28T02:45:32.170Z,14.49
2017-07-28T02:45:45.659Z,14.49
2017-07-28T02:45:59.100Z,14.52
2017-07-28T02:46:12.012Z,14.49
2017-07-28T02:46:25.538Z,14.59
2017-07-28T02:46:39.157Z,14.49
2017-07-28T02:46:52.021Z,14.59
2017-07-28T02:47:05.431Z,14.53
2017-07-28T02:47:18.335Z,14.53
2017-07-28T02:47:31.797Z,14.53
2017-07-28T02:47:44.678Z,14.52
2017-07-28T02:47:57.072Z,14.56
2017-07-28T02:48:10.506Z,14.51
2017-07-28T02:48:24.001Z,14.56
2017-07-28T02:48:36.939Z,14.49
2017-07-28T02:48:50.392Z,14.59
2017-07-28T02:49:03.364Z,14.56
2017-07-28T02:49:16.291Z,14.51
2017-07-28T02:49:29.712Z,14.53
2017-07-28T02:49:42.143Z,14.51
2017-07-28T02:49:55.113Z,14.56
2017-07-28T02:50:08.097Z,14.52
2017-07-28T02:50:21.512Z,14.53
2017-07-28T02:50:35.042Z,14.51
2017-07-28T02:50:47.467Z,14.51
2017-07-28T02:51:00.861Z,14.59